sensor_id;sensor_type;location;lat;lon;timestamp;P1;durP1;ratioP1;P2;durP2;ratioP2
67456;SDS011;54319;52.038;4.640;2022-11-13T00:04:53;27.67;;;18.17;;
67456;SDS011;54319;52.038;4.640;2022-11-13T00:07:23;29.92;;;19.35;;
67456;SDS011;54319;52.038;4.640;2022-11-13T00:09:51;30.02;;;18.58;;
67456;SDS011;54319;52.038;4.640;2022-11-13T00:12:18;31.75;;;19.42;;
67456;SDS011;54319;52.038;4.640;2022-11-13T00:14:45;28.98;;;18.02;;
67456;SDS011;54319;52.038;4.640;2022-11-13T00:17:12;27.05;;;17.60;;
67456;SDS011;54319;52.038;4.640;2022-11-13T00:19:39;26.90;;;18.05;;
67456;SDS011;54319;52.038;4.640;2022-11-13T00:22:06;26.40;;;17.73;;
67456;SDS011;54319;52.038;4.640;2022-11-13T00:24:33;30.60;;;18.75;;
67456;SDS011;54319;52.038;4.640;2022-11-13T00:27:01;28.95;;;18.02;;
67456;SDS011;54319;52.038;4.640;2022-11-13T00:29:28;29.92;;;17.35;;
67456;SDS011;54319;52.038;4.640;2022-11-13T00:31:55;27.15;;;18.15;;
67456;SDS011;54319;52.038;4.640;2022-11-13T00:34:22;28.92;;;17.27;;
67456;SDS011;54319;52.038;4.640;2022-11-13T00:36:50;27.83;;;16.80;;
67456;SDS011;54319;52.038;4.640;2022-11-13T00:39:17;25.60;;;17.02;;
67456;SDS011;54319;52.038;4.640;2022-11-13T00:41:44;28.20;;;17.10;;
67456;SDS011;54319;52.038;4.640;2022-11-13T00:44:12;23.98;;;15.55;;
67456;SDS011;54319;52.038;4.640;2022-11-13T00:46:39;29.08;;;16.05;;
67456;SDS011;54319;52.038;4.640;2022-11-13T00:49:06;22.83;;;15.25;;
67456;SDS011;54319;52.038;4.640;2022-11-13T00:51:33;25.20;;;16.48;;
67456;SDS011;54319;52.038;4.640;2022-11-13T00:54:00;22.75;;;16.13;;
67456;SDS011;54319;52.038;4.640;2022-11-13T00:56:27;24.30;;;15.60;;
67456;SDS011;54319;52.038;4.640;2022-11-13T00:58:53;28.58;;;15.55;;
67456;SDS011;54319;52.038;4.640;2022-11-13T01:01:22;24.67;;;15.55;;
67456;SDS011;54319;52.038;4.640;2022-11-13T01:03:49;22.40;;;14.65;;
67456;SDS011;54319;52.038;4.640;2022-11-13T01:06:17;22.67;;;15.45;;
67456;SDS011;54319;52.038;4.640;2022-11-13T01:08:45;25.63;;;15.23;;
67456;SDS011;54319;52.038;4.640;2022-11-13T01:11:14;27.77;;;16.23;;
67456;SDS011;54319;52.038;4.640;2022-11-13T01:13:43;26.48;;;15.60;;
67456;SDS011;54319;52.038;4.640;2022-11-13T01:16:12;26.15;;;16.05;;
67456;SDS011;54319;52.038;4.640;2022-11-13T01:18:41;26.25;;;15.77;;
67456;SDS011;54319;52.038;4.640;2022-11-13T01:21:12;20.00;;;14.05;;
67456;SDS011;54319;52.038;4.640;2022-11-13T01:23:42;24.20;;;13.77;;
67456;SDS011;54319;52.038;4.640;2022-11-13T01:26:14;22.33;;;13.52;;
67456;SDS011;54319;52.038;4.640;2022-11-13T01:28:44;19.08;;;12.88;;
67456;SDS011;54319;52.038;4.640;2022-11-13T01:31:13;23.80;;;13.45;;
67456;SDS011;54319;52.038;4.640;2022-11-13T01:33:43;20.95;;;13.50;;
67456;SDS011;54319;52.038;4.640;2022-11-13T01:36:14;20.15;;;13.18;;
67456;SDS011;54319;52.038;4.640;2022-11-13T01:38:45;21.05;;;13.10;;
67456;SDS011;54319;52.038;4.640;2022-11-13T01:43:42;19.35;;;11.75;;
67456;SDS011;54319;52.038;4.640;2022-11-13T01:46:15;18.13;;;12.02;;
67456;SDS011;54319;52.038;4.640;2022-11-13T01:48:53;23.25;;;13.02;;
67456;SDS011;54319;52.038;4.640;2022-11-13T01:51:26;21.70;;;12.88;;
67456;SDS011;54319;52.038;4.640;2022-11-13T01:53:55;19.77;;;12.65;;
67456;SDS011;54319;52.038;4.640;2022-11-13T01:56:23;21.85;;;13.38;;
67456;SDS011;54319;52.038;4.640;2022-11-13T01:58:52;19.95;;;13.00;;
67456;SDS011;54319;52.038;4.640;2022-11-13T02:01:23;19.23;;;12.38;;
67456;SDS011;54319;52.038;4.640;2022-11-13T02:03:55;20.98;;;12.90;;
67456;SDS011;54319;52.038;4.640;2022-11-13T02:06:22;20.15;;;11.90;;
67456;SDS011;54319;52.038;4.640;2022-11-13T02:08:50;18.35;;;12.73;;
67456;SDS011;54319;52.038;4.640;2022-11-13T02:13:45;17.13;;;10.75;;
67456;SDS011;54319;52.038;4.640;2022-11-13T02:16:13;16.90;;;11.55;;
67456;SDS011;54319;52.038;4.640;2022-11-13T02:18:41;18.25;;;12.48;;
67456;SDS011;54319;52.038;4.640;2022-11-13T02:21:12;17.13;;;11.57;;
67456;SDS011;54319;52.038;4.640;2022-11-13T02:23:49;17.45;;;12.05;;
67456;SDS011;54319;52.038;4.640;2022-11-13T02:26:26;15.40;;;11.38;;
67456;SDS011;54319;52.038;4.640;2022-11-13T02:28:56;16.08;;;11.43;;
67456;SDS011;54319;52.038;4.640;2022-11-13T02:31:24;17.92;;;11.98;;
67456;SDS011;54319;52.038;4.640;2022-11-13T02:33:50;17.23;;;11.77;;
67456;SDS011;54319;52.038;4.640;2022-11-13T02:36:17;17.67;;;11.70;;
67456;SDS011;54319;52.038;4.640;2022-11-13T02:38:51;17.40;;;11.80;;
67456;SDS011;54319;52.038;4.640;2022-11-13T02:41:33;19.55;;;11.25;;
67456;SDS011;54319;52.038;4.640;2022-11-13T02:44:02;16.13;;;11.32;;
67456;SDS011;54319;52.038;4.640;2022-11-13T02:46:31;16.88;;;12.45;;
67456;SDS011;54319;52.038;4.640;2022-11-13T02:48:58;20.92;;;12.10;;
67456;SDS011;54319;52.038;4.640;2022-11-13T02:51:26;18.38;;;11.77;;
67456;SDS011;54319;52.038;4.640;2022-11-13T02:53:53;15.60;;;11.18;;
67456;SDS011;54319;52.038;4.640;2022-11-13T02:56:20;17.63;;;10.82;;
67456;SDS011;54319;52.038;4.640;2022-11-13T02:58:54;17.58;;;12.52;;
67456;SDS011;54319;52.038;4.640;2022-11-13T03:01:21;18.27;;;12.00;;
67456;SDS011;54319;52.038;4.640;2022-11-13T03:03:48;16.75;;;11.68;;
67456;SDS011;54319;52.038;4.640;2022-11-13T03:06:16;17.92;;;12.02;;
67456;SDS011;54319;52.038;4.640;2022-11-13T03:08:42;20.02;;;12.63;;
67456;SDS011;54319;52.038;4.640;2022-11-13T03:11:10;20.17;;;12.45;;
67456;SDS011;54319;52.038;4.640;2022-11-13T03:13:37;21.25;;;12.75;;
67456;SDS011;54319;52.038;4.640;2022-11-13T03:16:07;22.88;;;12.32;;
67456;SDS011;54319;52.038;4.640;2022-11-13T03:18:37;18.30;;;11.88;;
67456;SDS011;54319;52.038;4.640;2022-11-13T03:21:07;16.90;;;11.82;;
67456;SDS011;54319;52.038;4.640;2022-11-13T03:23:37;19.77;;;12.23;;
67456;SDS011;54319;52.038;4.640;2022-11-13T03:26:06;17.58;;;12.52;;
67456;SDS011;54319;52.038;4.640;2022-11-13T03:28:34;21.65;;;12.23;;
67456;SDS011;54319;52.038;4.640;2022-11-13T03:31:02;19.10;;;11.48;;
67456;SDS011;54319;52.038;4.640;2022-11-13T03:33:31;16.95;;;11.63;;
67456;SDS011;54319;52.038;4.640;2022-11-13T03:35:58;17.00;;;12.05;;
67456;SDS011;54319;52.038;4.640;2022-11-13T03:38:25;18.80;;;11.57;;
67456;SDS011;54319;52.038;4.640;2022-11-13T03:40:54;19.67;;;12.05;;
67456;SDS011;54319;52.038;4.640;2022-11-13T03:43:24;17.02;;;11.45;;
67456;SDS011;54319;52.038;4.640;2022-11-13T03:45:51;18.90;;;11.27;;
67456;SDS011;54319;52.038;4.640;2022-11-13T03:48:18;18.63;;;11.80;;
67456;SDS011;54319;52.038;4.640;2022-11-13T03:50:47;20.90;;;11.88;;
67456;SDS011;54319;52.038;4.640;2022-11-13T03:53:15;17.65;;;11.68;;
67456;SDS011;54319;52.038;4.640;2022-11-13T03:55:42;16.73;;;11.25;;
67456;SDS011;54319;52.038;4.640;2022-11-13T03:58:09;20.15;;;11.77;;
67456;SDS011;54319;52.038;4.640;2022-11-13T04:00:36;18.05;;;12.43;;
67456;SDS011;54319;52.038;4.640;2022-11-13T04:03:05;15.98;;;10.85;;
67456;SDS011;54319;52.038;4.640;2022-11-13T04:05:32;17.73;;;12.05;;
67456;SDS011;54319;52.038;4.640;2022-11-13T04:08:00;18.23;;;11.65;;
67456;SDS011;54319;52.038;4.640;2022-11-13T04:10:27;16.02;;;10.88;;
67456;SDS011;54319;52.038;4.640;2022-11-13T04:12:54;17.42;;;10.95;;
67456;SDS011;54319;52.038;4.640;2022-11-13T04:15:21;16.25;;;10.82;;
67456;SDS011;54319;52.038;4.640;2022-11-13T04:17:48;14.65;;;10.43;;
67456;SDS011;54319;52.038;4.640;2022-11-13T04:20:16;16.58;;;10.60;;
67456;SDS011;54319;52.038;4.640;2022-11-13T04:22:44;15.25;;;9.88;;
67456;SDS011;54319;52.038;4.640;2022-11-13T04:25:12;17.02;;;11.00;;
67456;SDS011;54319;52.038;4.640;2022-11-13T04:27:39;19.67;;;10.65;;
67456;SDS011;54319;52.038;4.640;2022-11-13T04:30:06;14.65;;;10.20;;
67456;SDS011;54319;52.038;4.640;2022-11-13T04:32:34;16.25;;;10.55;;
67456;SDS011;54319;52.038;4.640;2022-11-13T04:35:01;17.15;;;10.75;;
67456;SDS011;54319;52.038;4.640;2022-11-13T04:37:28;13.68;;;9.68;;
67456;SDS011;54319;52.038;4.640;2022-11-13T04:39:55;15.60;;;11.05;;
67456;SDS011;54319;52.038;4.640;2022-11-13T04:42:24;23.45;;;11.80;;
67456;SDS011;54319;52.038;4.640;2022-11-13T04:45:08;18.20;;;10.38;;
67456;SDS011;54319;52.038;4.640;2022-11-13T04:47:37;18.45;;;10.40;;
67456;SDS011;54319;52.038;4.640;2022-11-13T04:50:04;17.23;;;11.02;;
67456;SDS011;54319;52.038;4.640;2022-11-13T04:54:58;18.27;;;11.93;;
67456;SDS011;54319;52.038;4.640;2022-11-13T04:57:27;16.60;;;10.48;;
67456;SDS011;54319;52.038;4.640;2022-11-13T04:59:54;15.63;;;10.95;;
67456;SDS011;54319;52.038;4.640;2022-11-13T05:02:21;16.30;;;11.18;;
67456;SDS011;54319;52.038;4.640;2022-11-13T05:04:47;15.63;;;10.90;;
67456;SDS011;54319;52.038;4.640;2022-11-13T05:07:14;18.43;;;10.83;;
67456;SDS011;54319;52.038;4.640;2022-11-13T05:09:41;14.23;;;10.00;;
67456;SDS011;54319;52.038;4.640;2022-11-13T05:12:08;15.65;;;11.40;;
67456;SDS011;54319;52.038;4.640;2022-11-13T05:14:37;17.48;;;10.73;;
67456;SDS011;54319;52.038;4.640;2022-11-13T05:17:07;19.75;;;11.18;;
67456;SDS011;54319;52.038;4.640;2022-11-13T05:19:38;18.13;;;10.65;;
67456;SDS011;54319;52.038;4.640;2022-11-13T05:22:05;15.05;;;10.75;;
67456;SDS011;54319;52.038;4.640;2022-11-13T05:24:32;18.38;;;10.88;;
67456;SDS011;54319;52.038;4.640;2022-11-13T05:26:59;17.40;;;10.77;;
67456;SDS011;54319;52.038;4.640;2022-11-13T05:29:25;17.15;;;10.43;;
67456;SDS011;54319;52.038;4.640;2022-11-13T05:31:56;18.38;;;10.68;;
67456;SDS011;54319;52.038;4.640;2022-11-13T05:34:23;16.75;;;10.80;;
67456;SDS011;54319;52.038;4.640;2022-11-13T05:39:17;16.20;;;10.65;;
67456;SDS011;54319;52.038;4.640;2022-11-13T05:41:44;15.35;;;10.98;;
67456;SDS011;54319;52.038;4.640;2022-11-13T05:44:11;17.10;;;10.75;;
67456;SDS011;54319;52.038;4.640;2022-11-13T05:46:38;16.98;;;10.57;;
67456;SDS011;54319;52.038;4.640;2022-11-13T05:49:06;16.63;;;10.15;;
67456;SDS011;54319;52.038;4.640;2022-11-13T05:51:35;20.17;;;10.35;;
67456;SDS011;54319;52.038;4.640;2022-11-13T05:54:04;16.58;;;11.27;;
67456;SDS011;54319;52.038;4.640;2022-11-13T05:56:33;23.08;;;11.30;;
67456;SDS011;54319;52.038;4.640;2022-11-13T05:59:05;15.98;;;11.10;;
67456;SDS011;54319;52.038;4.640;2022-11-13T06:01:33;16.45;;;11.32;;
67456;SDS011;54319;52.038;4.640;2022-11-13T06:04:01;15.20;;;10.20;;
67456;SDS011;54319;52.038;4.640;2022-11-13T06:06:29;14.18;;;10.43;;
67456;SDS011;54319;52.038;4.640;2022-11-13T06:08:58;15.30;;;9.80;;
67456;SDS011;54319;52.038;4.640;2022-11-13T06:11:29;17.05;;;10.43;;
67456;SDS011;54319;52.038;4.640;2022-11-13T06:13:59;16.10;;;10.18;;
67456;SDS011;54319;52.038;4.640;2022-11-13T06:16:27;14.48;;;10.05;;
67456;SDS011;54319;52.038;4.640;2022-11-13T06:18:56;14.50;;;10.07;;
67456;SDS011;54319;52.038;4.640;2022-11-13T06:21:25;15.20;;;10.05;;
67456;SDS011;54319;52.038;4.640;2022-11-13T06:23:55;15.15;;;10.80;;
67456;SDS011;54319;52.038;4.640;2022-11-13T06:26:24;17.63;;;10.90;;
67456;SDS011;54319;52.038;4.640;2022-11-13T06:28:51;15.50;;;10.23;;
67456;SDS011;54319;52.038;4.640;2022-11-13T06:31:20;15.48;;;10.63;;
67456;SDS011;54319;52.038;4.640;2022-11-13T06:33:51;18.35;;;10.65;;
67456;SDS011;54319;52.038;4.640;2022-11-13T06:36:20;18.10;;;10.95;;
67456;SDS011;54319;52.038;4.640;2022-11-13T06:38:50;16.33;;;10.48;;
67456;SDS011;54319;52.038;4.640;2022-11-13T06:41:19;18.02;;;11.45;;
67456;SDS011;54319;52.038;4.640;2022-11-13T06:43:47;15.73;;;10.85;;
67456;SDS011;54319;52.038;4.640;2022-11-13T06:46:16;16.70;;;11.07;;
67456;SDS011;54319;52.038;4.640;2022-11-13T06:48:43;16.05;;;10.52;;
67456;SDS011;54319;52.038;4.640;2022-11-13T06:51:12;16.65;;;11.02;;
67456;SDS011;54319;52.038;4.640;2022-11-13T06:53:40;15.45;;;10.77;;
67456;SDS011;54319;52.038;4.640;2022-11-13T06:56:08;19.48;;;10.60;;
67456;SDS011;54319;52.038;4.640;2022-11-13T06:58:37;15.38;;;11.07;;
67456;SDS011;54319;52.038;4.640;2022-11-13T07:01:05;18.17;;;11.43;;
67456;SDS011;54319;52.038;4.640;2022-11-13T07:03:32;18.13;;;11.07;;
67456;SDS011;54319;52.038;4.640;2022-11-13T07:06:01;18.45;;;11.18;;
67456;SDS011;54319;52.038;4.640;2022-11-13T07:08:29;16.95;;;11.30;;
67456;SDS011;54319;52.038;4.640;2022-11-13T07:13:24;15.13;;;10.68;;
67456;SDS011;54319;52.038;4.640;2022-11-13T07:15:54;16.63;;;10.55;;
67456;SDS011;54319;52.038;4.640;2022-11-13T07:18:27;15.63;;;10.68;;
67456;SDS011;54319;52.038;4.640;2022-11-13T07:20:54;18.67;;;11.32;;
67456;SDS011;54319;52.038;4.640;2022-11-13T07:23:21;16.52;;;10.27;;
67456;SDS011;54319;52.038;4.640;2022-11-13T07:25:48;18.73;;;10.85;;
67456;SDS011;54319;52.038;4.640;2022-11-13T07:28:19;15.80;;;10.85;;
67456;SDS011;54319;52.038;4.640;2022-11-13T07:30:46;17.75;;;11.50;;
67456;SDS011;54319;52.038;4.640;2022-11-13T07:33:15;17.42;;;10.82;;
67456;SDS011;54319;52.038;4.640;2022-11-13T07:35:42;17.98;;;11.10;;
67456;SDS011;54319;52.038;4.640;2022-11-13T07:38:09;18.02;;;11.27;;
67456;SDS011;54319;52.038;4.640;2022-11-13T07:40:35;17.85;;;10.98;;
67456;SDS011;54319;52.038;4.640;2022-11-13T07:43:03;21.17;;;11.48;;
67456;SDS011;54319;52.038;4.640;2022-11-13T07:45:30;15.93;;;10.82;;
67456;SDS011;54319;52.038;4.640;2022-11-13T07:48:00;15.53;;;10.83;;
67456;SDS011;54319;52.038;4.640;2022-11-13T07:50:29;18.23;;;10.75;;
67456;SDS011;54319;52.038;4.640;2022-11-13T07:52:59;15.48;;;10.73;;
67456;SDS011;54319;52.038;4.640;2022-11-13T07:55:28;16.88;;;10.93;;
67456;SDS011;54319;52.038;4.640;2022-11-13T08:00:26;18.58;;;10.20;;
67456;SDS011;54319;52.038;4.640;2022-11-13T08:02:55;17.13;;;10.10;;
67456;SDS011;54319;52.038;4.640;2022-11-13T08:05:25;14.15;;;10.07;;
67456;SDS011;54319;52.038;4.640;2022-11-13T08:07:55;16.70;;;10.90;;
67456;SDS011;54319;52.038;4.640;2022-11-13T08:10:21;14.82;;;10.65;;
67456;SDS011;54319;52.038;4.640;2022-11-13T08:12:48;14.18;;;10.18;;
67456;SDS011;54319;52.038;4.640;2022-11-13T08:15:24;14.18;;;10.40;;
67456;SDS011;54319;52.038;4.640;2022-11-13T08:17:54;18.25;;;10.90;;
67456;SDS011;54319;52.038;4.640;2022-11-13T08:20:21;15.57;;;10.68;;
67456;SDS011;54319;52.038;4.640;2022-11-13T08:22:56;17.75;;;11.10;;
67456;SDS011;54319;52.038;4.640;2022-11-13T08:25:23;15.63;;;10.52;;
67456;SDS011;54319;52.038;4.640;2022-11-13T08:27:52;18.45;;;11.25;;
67456;SDS011;54319;52.038;4.640;2022-11-13T08:30:19;15.13;;;10.15;;
67456;SDS011;54319;52.038;4.640;2022-11-13T08:32:47;17.30;;;10.20;;
67456;SDS011;54319;52.038;4.640;2022-11-13T08:35:14;14.52;;;10.25;;
67456;SDS011;54319;52.038;4.640;2022-11-13T08:37:43;14.10;;;9.20;;
67456;SDS011;54319;52.038;4.640;2022-11-13T08:40:12;16.40;;;9.52;;
67456;SDS011;54319;52.038;4.640;2022-11-13T08:42:48;14.63;;;8.65;;
67456;SDS011;54319;52.038;4.640;2022-11-13T08:45:34;13.35;;;8.80;;
67456;SDS011;54319;52.038;4.640;2022-11-13T08:48:02;10.88;;;8.13;;
67456;SDS011;54319;52.038;4.640;2022-11-13T08:50:32;11.73;;;7.32;;
67456;SDS011;54319;52.038;4.640;2022-11-13T08:53:03;12.98;;;7.43;;
67456;SDS011;54319;52.038;4.640;2022-11-13T08:55:36;9.07;;;6.45;;
67456;SDS011;54319;52.038;4.640;2022-11-13T08:58:03;9.85;;;6.53;;
67456;SDS011;54319;52.038;4.640;2022-11-13T09:00:31;9.45;;;6.50;;
67456;SDS011;54319;52.038;4.640;2022-11-13T09:02:59;8.30;;;6.00;;
67456;SDS011;54319;52.038;4.640;2022-11-13T09:05:26;10.15;;;6.70;;
67456;SDS011;54319;52.038;4.640;2022-11-13T09:07:57;11.85;;;5.85;;
67456;SDS011;54319;52.038;4.640;2022-11-13T09:10:26;8.60;;;5.43;;
67456;SDS011;54319;52.038;4.640;2022-11-13T09:12:56;8.43;;;5.60;;
67456;SDS011;54319;52.038;4.640;2022-11-13T09:15:23;7.45;;;5.38;;
67456;SDS011;54319;52.038;4.640;2022-11-13T09:17:50;9.00;;;5.90;;
67456;SDS011;54319;52.038;4.640;2022-11-13T09:20:23;7.03;;;5.30;;
67456;SDS011;54319;52.038;4.640;2022-11-13T09:22:57;8.00;;;5.70;;
67456;SDS011;54319;52.038;4.640;2022-11-13T09:25:27;9.30;;;6.00;;
67456;SDS011;54319;52.038;4.640;2022-11-13T09:27:59;8.75;;;5.70;;
67456;SDS011;54319;52.038;4.640;2022-11-13T09:30:27;7.70;;;5.40;;
67456;SDS011;54319;52.038;4.640;2022-11-13T09:32:56;8.38;;;5.70;;
67456;SDS011;54319;52.038;4.640;2022-11-13T09:35:24;9.43;;;6.50;;
67456;SDS011;54319;52.038;4.640;2022-11-13T09:38:02;8.80;;;5.55;;
67456;SDS011;54319;52.038;4.640;2022-11-13T09:40:32;7.90;;;5.80;;
67456;SDS011;54319;52.038;4.640;2022-11-13T09:43:12;8.30;;;5.60;;
67456;SDS011;54319;52.038;4.640;2022-11-13T09:45:50;7.68;;;5.90;;
67456;SDS011;54319;52.038;4.640;2022-11-13T09:48:22;7.78;;;5.60;;
67456;SDS011;54319;52.038;4.640;2022-11-13T09:50:52;8.52;;;5.80;;
67456;SDS011;54319;52.038;4.640;2022-11-13T09:55:53;9.55;;;5.65;;
67456;SDS011;54319;52.038;4.640;2022-11-13T09:58:33;8.63;;;5.50;;
67456;SDS011;54319;52.038;4.640;2022-11-13T10:01:13;7.22;;;5.68;;
67456;SDS011;54319;52.038;4.640;2022-11-13T10:03:49;8.13;;;5.60;;
67456;SDS011;54319;52.038;4.640;2022-11-13T10:06:23;7.13;;;5.25;;
67456;SDS011;54319;52.038;4.640;2022-11-13T10:08:56;8.10;;;5.65;;
67456;SDS011;54319;52.038;4.640;2022-11-13T10:11:35;11.43;;;5.53;;
67456;SDS011;54319;52.038;4.640;2022-11-13T10:14:10;8.55;;;5.78;;
67456;SDS011;54319;52.038;4.640;2022-11-13T10:19:13;9.77;;;5.93;;
67456;SDS011;54319;52.038;4.640;2022-11-13T10:21:47;9.13;;;5.43;;
67456;SDS011;54319;52.038;4.640;2022-11-13T10:24:26;12.40;;;5.90;;
67456;SDS011;54319;52.038;4.640;2022-11-13T10:27:11;7.88;;;5.28;;
67456;SDS011;54319;52.038;4.640;2022-11-13T10:29:46;7.97;;;5.78;;
67456;SDS011;54319;52.038;4.640;2022-11-13T10:32:15;7.28;;;5.55;;
67456;SDS011;54319;52.038;4.640;2022-11-13T10:34:45;8.75;;;5.70;;
67456;SDS011;54319;52.038;4.640;2022-11-13T10:40:07;9.65;;;5.43;;
67456;SDS011;54319;52.038;4.640;2022-11-13T10:42:36;11.00;;;5.70;;
67456;SDS011;54319;52.038;4.640;2022-11-13T10:45:18;7.32;;;5.63;;
67456;SDS011;54319;52.038;4.640;2022-11-13T10:47:48;6.68;;;5.32;;
67456;SDS011;54319;52.038;4.640;2022-11-13T10:50:20;6.68;;;5.57;;
67456;SDS011;54319;52.038;4.640;2022-11-13T10:53:12;7.28;;;5.28;;
67456;SDS011;54319;52.038;4.640;2022-11-13T10:55:41;8.43;;;5.28;;
67456;SDS011;54319;52.038;4.640;2022-11-13T10:58:18;8.27;;;5.70;;
67456;SDS011;54319;52.038;4.640;2022-11-13T11:00:57;7.32;;;5.47;;
67456;SDS011;54319;52.038;4.640;2022-11-13T11:03:24;7.50;;;5.20;;
67456;SDS011;54319;52.038;4.640;2022-11-13T11:05:54;9.65;;;5.47;;
67456;SDS011;54319;52.038;4.640;2022-11-13T11:08:26;10.15;;;6.05;;
67456;SDS011;54319;52.038;4.640;2022-11-13T11:10:57;8.10;;;5.80;;
67456;SDS011;54319;52.038;4.640;2022-11-13T11:13:43;6.93;;;5.35;;
67456;SDS011;54319;52.038;4.640;2022-11-13T11:16:13;7.45;;;5.40;;
67456;SDS011;54319;52.038;4.640;2022-11-13T11:18:46;8.50;;;5.40;;
67456;SDS011;54319;52.038;4.640;2022-11-13T11:21:19;5.80;;;4.82;;
67456;SDS011;54319;52.038;4.640;2022-11-13T11:23:49;6.60;;;5.10;;
67456;SDS011;54319;52.038;4.640;2022-11-13T11:26:22;7.68;;;5.55;;
67456;SDS011;54319;52.038;4.640;2022-11-13T11:28:52;9.68;;;5.50;;
67456;SDS011;54319;52.038;4.640;2022-11-13T11:31:33;7.72;;;5.57;;
67456;SDS011;54319;52.038;4.640;2022-11-13T11:34:06;7.50;;;5.53;;
67456;SDS011;54319;52.038;4.640;2022-11-13T11:36:42;8.18;;;5.45;;
67456;SDS011;54319;52.038;4.640;2022-11-13T11:39:21;8.95;;;5.80;;
67456;SDS011;54319;52.038;4.640;2022-11-13T11:41:56;6.95;;;5.10;;
67456;SDS011;54319;52.038;4.640;2022-11-13T11:44:30;9.18;;;6.00;;
67456;SDS011;54319;52.038;4.640;2022-11-13T11:47:14;7.63;;;5.47;;
67456;SDS011;54319;52.038;4.640;2022-11-13T11:49:52;7.70;;;5.35;;
67456;SDS011;54319;52.038;4.640;2022-11-13T11:55:28;7.22;;;5.60;;
67456;SDS011;54319;52.038;4.640;2022-11-13T11:58:13;7.53;;;5.57;;
67456;SDS011;54319;52.038;4.640;2022-11-13T12:00:49;8.38;;;5.43;;
67456;SDS011;54319;52.038;4.640;2022-11-13T12:06:25;7.55;;;5.40;;
67456;SDS011;54319;52.038;4.640;2022-11-13T12:09:07;7.80;;;5.75;;
67456;SDS011;54319;52.038;4.640;2022-11-13T12:11:42;8.15;;;5.63;;
67456;SDS011;54319;52.038;4.640;2022-11-13T12:14:15;7.88;;;5.38;;
67456;SDS011;54319;52.038;4.640;2022-11-13T12:16:50;12.48;;;8.88;;
67456;SDS011;54319;52.038;4.640;2022-11-13T12:19:32;10.82;;;7.40;;
67456;SDS011;54319;52.038;4.640;2022-11-13T12:22:14;7.78;;;5.63;;
67456;SDS011;54319;52.038;4.640;2022-11-13T12:24:50;10.73;;;5.68;;
67456;SDS011;54319;52.038;4.640;2022-11-13T12:27:28;8.07;;;5.65;;
67456;SDS011;54319;52.038;4.640;2022-11-13T12:30:02;8.13;;;5.90;;
67456;SDS011;54319;52.038;4.640;2022-11-13T12:35:18;8.40;;;5.70;;
67456;SDS011;54319;52.038;4.640;2022-11-13T12:37:51;8.32;;;5.60;;
67456;SDS011;54319;52.038;4.640;2022-11-13T12:40:25;8.93;;;5.35;;
67456;SDS011;54319;52.038;4.640;2022-11-13T12:42:58;7.13;;;5.70;;
67456;SDS011;54319;52.038;4.640;2022-11-13T12:45:44;7.82;;;6.10;;
67456;SDS011;54319;52.038;4.640;2022-11-13T12:51:09;10.38;;;5.55;;
67456;SDS011;54319;52.038;4.640;2022-11-13T12:53:44;7.75;;;5.60;;
67456;SDS011;54319;52.038;4.640;2022-11-13T12:56:15;8.55;;;5.68;;
67456;SDS011;54319;52.038;4.640;2022-11-13T12:58:55;7.65;;;5.63;;
67456;SDS011;54319;52.038;4.640;2022-11-13T13:01:24;6.68;;;5.25;;
67456;SDS011;54319;52.038;4.640;2022-11-13T13:04:01;9.15;;;5.22;;
67456;SDS011;54319;52.038;4.640;2022-11-13T13:06:48;6.82;;;5.18;;
67456;SDS011;54319;52.038;4.640;2022-11-13T13:09:28;6.93;;;5.22;;
67456;SDS011;54319;52.038;4.640;2022-11-13T13:12:06;7.20;;;5.50;;
67456;SDS011;54319;52.038;4.640;2022-11-13T13:14:53;10.43;;;5.70;;
67456;SDS011;54319;52.038;4.640;2022-11-13T13:17:31;9.55;;;5.75;;
67456;SDS011;54319;52.038;4.640;2022-11-13T13:20:02;8.40;;;5.50;;
67456;SDS011;54319;52.038;4.640;2022-11-13T13:22:33;7.20;;;5.13;;
67456;SDS011;54319;52.038;4.640;2022-11-13T13:25:03;6.90;;;5.25;;
67456;SDS011;54319;52.038;4.640;2022-11-13T13:27:34;8.20;;;5.22;;
67456;SDS011;54319;52.038;4.640;2022-11-13T13:30:16;7.75;;;5.43;;
67456;SDS011;54319;52.038;4.640;2022-11-13T13:32:48;7.78;;;5.47;;
67456;SDS011;54319;52.038;4.640;2022-11-13T13:35:23;7.85;;;5.43;;
67456;SDS011;54319;52.038;4.640;2022-11-13T13:38:02;7.00;;;5.38;;
67456;SDS011;54319;52.038;4.640;2022-11-13T13:40:37;6.82;;;5.13;;
67456;SDS011;54319;52.038;4.640;2022-11-13T13:43:15;7.68;;;5.47;;
67456;SDS011;54319;52.038;4.640;2022-11-13T13:45:54;6.07;;;4.93;;
67456;SDS011;54319;52.038;4.640;2022-11-13T13:48:27;7.05;;;5.28;;
67456;SDS011;54319;52.038;4.640;2022-11-13T13:50:57;7.53;;;5.32;;
67456;SDS011;54319;52.038;4.640;2022-11-13T13:53:29;12.07;;;5.82;;
67456;SDS011;54319;52.038;4.640;2022-11-13T13:56:01;7.93;;;5.85;;
67456;SDS011;54319;52.038;4.640;2022-11-13T13:58:30;9.05;;;5.55;;
67456;SDS011;54319;52.038;4.640;2022-11-13T14:01:01;8.52;;;5.63;;
67456;SDS011;54319;52.038;4.640;2022-11-13T14:03:29;8.35;;;5.25;;
67456;SDS011;54319;52.038;4.640;2022-11-13T14:06:06;9.63;;;5.75;;
67456;SDS011;54319;52.038;4.640;2022-11-13T14:08:36;8.38;;;5.70;;
67456;SDS011;54319;52.038;4.640;2022-11-13T14:11:14;8.32;;;5.38;;
67456;SDS011;54319;52.038;4.640;2022-11-13T14:13:43;6.53;;;4.72;;
67456;SDS011;54319;52.038;4.640;2022-11-13T14:16:11;8.23;;;5.10;;
67456;SDS011;54319;52.038;4.640;2022-11-13T14:18:38;6.75;;;4.90;;
67456;SDS011;54319;52.038;4.640;2022-11-13T14:21:10;6.88;;;4.80;;
67456;SDS011;54319;52.038;4.640;2022-11-13T14:23:42;6.95;;;5.07;;
67456;SDS011;54319;52.038;4.640;2022-11-13T14:26:12;7.22;;;4.50;;
67456;SDS011;54319;52.038;4.640;2022-11-13T14:28:43;6.55;;;4.97;;
67456;SDS011;54319;52.038;4.640;2022-11-13T14:31:17;9.18;;;4.80;;
67456;SDS011;54319;52.038;4.640;2022-11-13T14:33:44;6.50;;;5.07;;
67456;SDS011;54319;52.038;4.640;2022-11-13T14:36:15;7.13;;;4.93;;
67456;SDS011;54319;52.038;4.640;2022-11-13T14:38:55;6.63;;;4.88;;
67456;SDS011;54319;52.038;4.640;2022-11-13T14:41:31;7.38;;;5.00;;
67456;SDS011;54319;52.038;4.640;2022-11-13T14:44:00;6.07;;;4.70;;
67456;SDS011;54319;52.038;4.640;2022-11-13T14:46:28;6.57;;;4.75;;
67456;SDS011;54319;52.038;4.640;2022-11-13T14:48:56;6.57;;;4.50;;
67456;SDS011;54319;52.038;4.640;2022-11-13T14:51:25;7.05;;;4.55;;
67456;SDS011;54319;52.038;4.640;2022-11-13T14:53:58;9.38;;;5.00;;
67456;SDS011;54319;52.038;4.640;2022-11-13T14:56:30;7.15;;;4.82;;
67456;SDS011;54319;52.038;4.640;2022-11-13T14:59:08;6.72;;;4.90;;
67456;SDS011;54319;52.038;4.640;2022-11-13T15:01:37;8.18;;;5.13;;
67456;SDS011;54319;52.038;4.640;2022-11-13T15:04:04;8.05;;;5.05;;
67456;SDS011;54319;52.038;4.640;2022-11-13T15:06:33;7.00;;;5.25;;
67456;SDS011;54319;52.038;4.640;2022-11-13T15:09:03;6.55;;;4.95;;
67456;SDS011;54319;52.038;4.640;2022-11-13T15:11:36;6.85;;;5.28;;
67456;SDS011;54319;52.038;4.640;2022-11-13T15:14:08;7.90;;;5.53;;
67456;SDS011;54319;52.038;4.640;2022-11-13T15:16:36;8.40;;;5.50;;
67456;SDS011;54319;52.038;4.640;2022-11-13T15:19:03;7.43;;;5.40;;
67456;SDS011;54319;52.038;4.640;2022-11-13T15:21:36;8.20;;;5.40;;
67456;SDS011;54319;52.038;4.640;2022-11-13T15:24:05;7.78;;;5.88;;
67456;SDS011;54319;52.038;4.640;2022-11-13T15:26:32;9.95;;;5.60;;
67456;SDS011;54319;52.038;4.640;2022-11-13T15:28:58;8.90;;;5.97;;
67456;SDS011;54319;52.038;4.640;2022-11-13T15:31:28;9.68;;;5.65;;